Time;durP1;ratioP1;P1;durP2;ratioP2;P2;SDS_P1;SDS_P2;PMS_P1;PMS_P2;Temp;Humidity;BMP_temperature;BMP_pressure;BME280_temperature;BME280_humidity;BME280_pressure;Samples;Min_cycle;Max_cycle;Signal;HPM_P1;HPM_P2
2023/04/25 00:05:40;;;;;;;;;39.50;35.50;;;;;;;;6488549;39;8879;-56
2023/04/25 00:11:46;;;;;;;;;35.75;34.25;;;;;;;;6488571;31;8936;-53
2023/04/25 00:17:48;;;;;;;;;32.25;28.75;;;;;;;;6489529;39;9591;-56
2023/04/25 00:23:52;;;;;;;;;37.00;36.00;;;;;;;;6488876;39;8886;-57
2023/04/25 00:29:55;;;;;;;;;37.67;32.00;;;;;;;;6488132;39;8862;-56
2023/04/25 00:35:59;;;;;;;;;41.75;36.75;;;;;;;;6488646;39;8858;-56
2023/04/25 00:42:02;;;;;;;;;33.00;30.67;;;;;;;;6487294;39;8937;-54
2023/04/25 00:48:05;;;;;;;;;32.33;31.33;;;;;;;;6487854;39;8887;-55
2023/04/25 00:54:08;;;;;;;;;33.67;33.67;;;;;;;;6487474;31;8897;-55
2023/04/25 01:00:11;;;;;;;;;29.33;29.33;;;;;;;;6487175;47;9009;-55
2023/04/25 01:06:15;;;;;;;;;33.67;32.00;;;;;;;;6487939;39;8846;-56
2023/04/25 01:12:17;;;;;;;;;32.67;29.67;;;;;;;;6488630;39;8958;-57
2023/04/25 01:18:20;;;;;;;;;34.50;33.50;;;;;;;;6489853;46;8904;-56
2023/04/25 01:24:23;;;;;;;;;38.75;35.25;;;;;;;;6490396;39;8989;-57
2023/04/25 01:30:29;;;;;;;;;35.25;35.25;;;;;;;;6489573;39;8885;-56
2023/04/25 01:36:32;;;;;;;;;39.75;35.00;;;;;;;;6489488;39;9057;-55
2023/04/25 01:42:36;;;;;;;;;38.75;36.25;;;;;;;;6488247;39;8846;-56
2023/04/25 01:48:38;;;;;;;;;44.50;38.00;;;;;;;;6488632;46;8944;-56
2023/04/25 01:54:43;;;;;;;;;46.25;40.00;;;;;;;;6488919;39;8945;-57
2023/04/25 02:00:49;;;;;;;;;41.25;37.50;;;;;;;;6488517;46;8953;-56
2023/04/25 02:06:51;;;;;;;;;43.25;39.75;;;;;;;;6489560;39;9592;-56
2023/04/25 02:12:54;;;;;;;;;38.00;34.25;;;;;;;;6488827;39;9482;-54
2023/04/25 02:19:23;;;;;;;;;33.75;30.00;;;;;;;;6489327;46;8987;-52
2023/04/25 02:25:26;;;;;;;;;37.75;36.00;;;;;;;;6488252;46;8854;-57
2023/04/25 02:31:29;;;;;;;;;34.25;30.50;;;;;;;;6488348;46;8887;-54
2023/04/25 02:37:35;;;;;;;;;33.25;32.75;;;;;;;;6488229;46;9053;-56
2023/04/25 02:43:37;;;;;;;;;33.00;27.50;;;;;;;;6488698;39;8863;-56
2023/04/25 02:49:40;;;;;;;;;34.00;29.50;;;;;;;;6489181;39;8945;-55
2023/04/25 02:55:44;;;;;;;;;26.25;24.75;;;;;;;;6487666;46;8965;-54
2023/04/25 03:01:47;;;;;;;;;30.00;26.50;;;;;;;;6488914;39;8910;-56
2023/04/25 03:07:49;;;;;;;;;31.00;28.75;;;;;;;;6488343;39;8891;-56
2023/04/25 03:13:55;;;;;;;;;30.50;26.50;;;;;;;;6488869;39;8918;-56
2023/04/25 03:19:58;;;;;;;;;25.50;24.50;;;;;;;;6488715;39;8930;-57
2023/04/25 03:26:01;;;;;;;;;28.25;24.75;;;;;;;;6488198;39;8947;-56
2023/04/25 03:32:04;;;;;;;;;29.00;25.00;;;;;;;;6488705;39;8983;-53
2023/04/25 03:38:08;;;;;;;;;24.50;24.00;;;;;;;;6489246;39;9052;-55
2023/04/25 03:44:14;;;;;;;;;20.50;20.50;;;;;;;;6488439;39;8871;-57
2023/04/25 03:50:17;;;;;;;;;25.00;25.00;;;;;;;;6488473;31;8890;-55
2023/04/25 03:56:22;;;;;;;;;32.75;26.75;;;;;;;;6487920;39;8886;-53
2023/04/25 04:02:32;;;;;;;;;28.25;26.00;;;;;;;;6462539;39;9047;-55
2023/04/25 04:08:36;;;;;;;;;30.50;27.25;;;;;;;;6490975;39;8935;-53
2023/04/25 10:16:30;;;;;;;;;51.67;43.00;;;;;;;;6489004;31;8993;-54
2023/04/25 10:22:53;;;;;;;;;58.50;47.50;;;;;;;;6486204;39;9015;-55
2023/04/25 10:28:58;;;;;;;;;50.67;42.00;;;;;;;;6487436;39;8934;-54
2023/04/25 10:35:17;;;;;;;;;63.75;51.75;;;;;;;;6485550;46;8977;-56
2023/04/25 10:41:21;;;;;;;;;70.33;55.33;;;;;;;;6487407;31;9001;-59
2023/04/25 10:47:44;;;;;;;;;48.33;38.67;;;;;;;;6487237;46;9003;-55
2023/04/25 10:54:08;;;;;;;;;50.67;41.67;;;;;;;;6487827;39;8955;-56
2023/04/25 11:00:15;;;;;;;;;42.33;36.67;;;;;;;;6487865;31;9634;-55
2023/04/25 11:06:48;;;;;;;;;33.67;31.33;;;;;;;;6487190;39;8920;-56
2023/04/25 11:12:53;;;;;;;;;22.00;20.67;;;;;;;;6488638;39;9058;-58
2023/04/25 11:18:58;;;;;;;;;32.67;31.00;;;;;;;;6487327;39;8940;-56
2023/04/25 11:25:10;;;;;;;;;47.67;39.00;;;;;;;;6487513;39;8903;-56
2023/04/25 11:31:12;;;;;;;;;47.00;39.33;;;;;;;;6486823;39;8967;-55
2023/04/25 11:37:19;;;;;;;;;39.33;36.00;;;;;;;;6487768;39;9606;-55
2023/04/25 11:43:22;;;;;;;;;23.00;23.00;;;;;;;;6487332;39;8930;-55
2023/04/25 11:49:30;;;;;;;;;24.50;23.50;;;;;;;;6486950;39;8985;-55
2023/04/25 11:55:34;;;;;;;;;49.00;41.33;;;;;;;;6487669;39;9087;-56
2023/04/25 12:01:47;;;;;;;;;23.00;19.33;;;;;;;;6486070;39;8974;-53
2023/04/25 12:07:49;;;;;;;;;26.67;24.67;;;;;;;;6486661;46;9061;-58
2023/04/25 12:13:53;;;;;;;;;47.67;39.00;;;;;;;;6487061;39;9021;-56
2023/04/25 12:19:57;;;;;;;;;28.33;24.67;;;;;;;;6486732;39;10475;-55
2023/04/25 12:26:02;;;;;;;;;12.33;11.67;;;;;;;;6487637;39;8982;-57
2023/04/25 12:32:06;;;;;;;;;16.67;16.67;;;;;;;;6485010;39;9535;-56
2023/04/25 12:38:11;;;;;;;;;21.33;17.00;;;;;;;;6486187;31;8927;-55
2023/04/25 12:44:14;;;;;;;;;11.33;9.33;;;;;;;;6486008;31;8950;-53
2023/04/25 12:50:19;;;;;;;;;13.33;11.00;;;;;;;;6486528;39;8911;-55
2023/04/25 12:56:22;;;;;;;;;9.67;9.33;;;;;;;;6487255;31;8912;-54
2023/04/25 13:02:29;;;;;;;;;21.33;15.33;;;;;;;;6487130;31;9102;-55
2023/04/25 13:08:32;;;;;;;;;12.67;12.67;;;;;;;;6485907;39;8974;-56
2023/04/25 13:14:35;;;;;;;;;15.33;14.00;;;;;;;;6489093;39;8989;-55
2023/04/25 13:20:40;;;;;;;;;16.67;14.33;;;;;;;;6488411;39;9605;-55
2023/04/25 13:26:43;;;;;;;;;13.67;13.00;;;;;;;;6489007;39;8946;-53
2023/04/25 13:32:45;;;;;;;;;14.00;14.00;;;;;;;;6488001;39;9027;-54
2023/04/25 13:38:49;;;;;;;;;15.67;15.00;;;;;;;;6486773;39;8978;-54
2023/04/25 13:44:52;;;;;;;;;35.33;35.00;;;;;;;;6487920;39;9586;-56
2023/04/25 13:50:54;;;;;;;;;24.33;21.00;;;;;;;;6488874;39;8943;-55
2023/04/25 13:56:58;;;;;;;;;43.00;30.33;;;;;;;;6489775;39;9457;-53
2023/04/25 14:03:04;;;;;;;;;8.67;8.67;;;;;;;;6489549;46;9086;-56
2023/04/25 14:09:09;;;;;;;;;9.00;9.00;;;;;;;;6491047;31;9029;-57
2023/04/25 14:15:12;;;;;;;;;17.33;11.67;;;;;;;;6463013;36;5001612;-55
2023/04/25 14:21:14;;;;;;;;;20.00;16.00;;;;;;;;6490099;31;8960;-56
2023/04/25 14:27:18;;;;;;;;;13.00;13.00;;;;;;;;6490237;31;8923;-55
2023/04/25 14:33:21;;;;;;;;;17.33;16.00;;;;;;;;6490163;39;8961;-55
2023/04/25 14:39:24;;;;;;;;;18.00;18.00;;;;;;;;6489723;46;8916;-57
2023/04/25 14:45:26;;;;;;;;;15.67;15.67;;;;;;;;6308849;39;10001250;-57
2023/04/25 14:51:29;;;;;;;;;18.00;18.00;;;;;;;;6490102;39;8917;-54
2023/04/25 14:57:34;;;;;;;;;16.33;15.67;;;;;;;;6490022;31;8922;-56
2023/04/25 15:03:36;;;;;;;;;17.33;16.67;;;;;;;;6489284;39;9060;-56
2023/04/25 15:09:38;;;;;;;;;18.67;18.67;;;;;;;;6489218;46;8962;-57
2023/04/25 15:15:41;;;;;;;;;13.00;13.00;;;;;;;;6490548;39;9162;-54
2023/04/25 15:21:43;;;;;;;;;15.33;15.33;;;;;;;;6490652;31;9048;-56
2023/04/25 15:27:48;;;;;;;;;8.67;8.33;;;;;;;;6490397;31;8997;-55
2023/04/25 15:33:50;;;;;;;;;3.33;3.33;;;;;;;;6489296;46;8976;-54
2023/04/25 15:40:06;;;;;;;;;4.67;4.67;;;;;;;;6489606;39;8932;-55
2023/04/25 15:46:08;;;;;;;;;4.00;3.67;;;;;;;;6489686;46;8964;-57
2023/04/25 15:52:11;;;;;;;;;3.00;3.00;;;;;;;;6489585;39;8848;-55
2023/04/25 15:58:13;;;;;;;;;4.33;3.00;;;;;;;;6489001;46;8993;-56
2023/04/25 16:04:16;;;;;;;;;2.00;2.00;;;;;;;;6488749;39;9006;-56
2023/04/25 16:10:20;;;;;;;;;8.33;7.33;;;;;;;;6489276;46;8893;-54
2023/04/25 16:16:22;;;;;;;;;3.67;3.67;;;;;;;;6489665;31;9084;-56
2023/04/25 16:22:25;;;;;;;;;3.33;3.33;;;;;;;;6488798;39;8940;-55
2023/04/25 16:28:29;;;;;;;;;6.00;3.00;;;;;;;;6489719;47;8844;-55
2023/04/25 16:34:31;;;;;;;;;16.67;13.67;;;;;;;;6489991;39;8859;-53
2023/04/25 16:40:34;;;;;;;;;4.00;4.00;;;;;;;;6489294;39;9030;-56
2023/04/25 16:46:37;;;;;;;;;8.00;6.00;;;;;;;;6491376;39;9103;-54
2023/04/25 16:52:39;;;;;;;;;2.67;2.00;;;;;;;;6490126;39;8913;-55
2023/04/25 16:58:44;;;;;;;;;3.67;3.67;;;;;;;;6488965;46;9040;-54
2023/04/25 17:04:47;;;;;;;;;9.00;7.67;;;;;;;;6490161;39;9470;-53
2023/04/25 17:10:49;;;;;;;;;6.00;4.67;;;;;;;;6489967;46;8994;-52
2023/04/25 17:16:52;;;;;;;;;7.33;5.00;;;;;;;;6489218;39;8897;-55
2023/04/25 17:22:55;;;;;;;;;11.33;9.33;;;;;;;;6490297;31;8990;-55
2023/04/25 17:28:58;;;;;;;;;11.67;10.33;;;;;;;;6489245;46;8873;-53
2023/04/25 17:35:02;;;;;;;;;17.67;16.00;;;;;;;;6490582;39;8998;-54
2023/04/25 17:41:05;;;;;;;;;8.00;8.00;;;;;;;;6489400;46;9087;-53
2023/04/25 17:47:09;;;;;;;;;9.67;8.00;;;;;;;;6489560;46;8867;-53
2023/04/25 17:53:11;;;;;;;;;8.67;8.67;;;;;;;;6488960;39;8825;-54
2023/04/25 17:59:13;;;;;;;;;15.67;13.33;;;;;;;;6489574;39;8836;-54
2023/04/25 18:05:19;;;;;;;;;9.00;9.00;;;;;;;;5948586;31;10001755;-55
2023/04/25 18:11:22;;;;;;;;;11.00;11.00;;;;;;;;6490305;31;11064;-54
2023/04/25 18:17:24;;;;;;;;;11.00;9.33;;;;;;;;6489701;39;8876;-53
2023/04/25 18:23:28;;;;;;;;;13.67;13.67;;;;;;;;6490175;39;9621;-55
2023/04/25 18:29:30;;;;;;;;;14.00;11.67;;;;;;;;6489047;46;8852;-54
2023/04/25 18:35:35;;;;;;;;;10.33;10.00;;;;;;;;6489976;39;8863;-55
2023/04/25 18:41:47;;;;;;;;;9.33;9.33;;;;;;;;6489784;39;8909;-57
2023/04/25 18:47:59;;;;;;;;;9.67;9.67;;;;;;;;6489217;39;9609;-54
2023/04/25 18:54:03;;;;;;;;;11.67;11.00;;;;;;;;6488717;46;8857;-54
2023/04/25 19:00:07;;;;;;;;;15.00;12.33;;;;;;;;6489185;46;8911;-56
2023/04/25 19:06:09;;;;;;;;;11.67;10.67;;;;;;;;6489444;46;8928;-55
2023/04/25 19:12:12;;;;;;;;;11.67;11.67;;;;;;;;6488918;46;8915;-59
2023/04/25 19:18:14;;;;;;;;;13.00;12.00;;;;;;;;6489000;39;8857;-55
